sensor_id;sensor_type;location;lat;lon;timestamp;P1;durP1;ratioP1;P2;durP2;ratioP2
54408;SDS011;40315;48.620;9.828;2023-03-24T00:00:57;4.07;;;2.47;;
54408;SDS011;40315;48.620;9.828;2023-03-24T00:03:28;2.97;;;2.50;;
54408;SDS011;40315;48.620;9.828;2023-03-24T00:05:56;3.20;;;2.70;;
54408;SDS011;40315;48.620;9.828;2023-03-24T00:08:30;3.63;;;2.60;;
54408;SDS011;40315;48.620;9.828;2023-03-24T00:10:59;4.55;;;2.70;;
54408;SDS011;40315;48.620;9.828;2023-03-24T00:13:28;3.28;;;2.78;;
54408;SDS011;40315;48.620;9.828;2023-03-24T00:16:02;5.22;;;2.75;;
54408;SDS011;40315;48.620;9.828;2023-03-24T00:18:32;3.00;;;2.42;;
54408;SDS011;40315;48.620;9.828;2023-03-24T00:21:01;2.83;;;2.40;;
54408;SDS011;40315;48.620;9.828;2023-03-24T00:23:30;3.28;;;2.17;;
54408;SDS011;40315;48.620;9.828;2023-03-24T00:25:59;3.28;;;2.47;;
54408;SDS011;40315;48.620;9.828;2023-03-24T00:28:28;4.90;;;2.95;;
54408;SDS011;40315;48.620;9.828;2023-03-24T00:30:57;3.92;;;2.78;;
54408;SDS011;40315;48.620;9.828;2023-03-24T00:33:26;3.40;;;2.75;;
54408;SDS011;40315;48.620;9.828;2023-03-24T00:35:59;4.72;;;2.85;;
54408;SDS011;40315;48.620;9.828;2023-03-24T00:38:27;4.13;;;2.95;;
54408;SDS011;40315;48.620;9.828;2023-03-24T00:40:56;4.70;;;3.00;;
54408;SDS011;40315;48.620;9.828;2023-03-24T00:43:27;3.70;;;2.90;;
54408;SDS011;40315;48.620;9.828;2023-03-24T00:45:56;4.72;;;2.92;;
54408;SDS011;40315;48.620;9.828;2023-03-24T00:48:26;3.65;;;2.83;;
54408;SDS011;40315;48.620;9.828;2023-03-24T00:50:57;5.10;;;2.90;;
54408;SDS011;40315;48.620;9.828;2023-03-24T00:53:27;3.33;;;3.00;;
54408;SDS011;40315;48.620;9.828;2023-03-24T00:55:56;3.65;;;3.13;;
54408;SDS011;40315;48.620;9.828;2023-03-24T00:58:24;5.15;;;2.97;;
54408;SDS011;40315;48.620;9.828;2023-03-24T01:03:35;3.55;;;3.08;;
54408;SDS011;40315;48.620;9.828;2023-03-24T01:06:17;4.07;;;3.28;;
54408;SDS011;40315;48.620;9.828;2023-03-24T01:08:46;3.38;;;2.80;;
54408;SDS011;40315;48.620;9.828;2023-03-24T01:11:16;4.20;;;2.97;;
54408;SDS011;40315;48.620;9.828;2023-03-24T01:13:43;3.50;;;2.85;;
54408;SDS011;40315;48.620;9.828;2023-03-24T01:16:11;3.20;;;2.90;;
54408;SDS011;40315;48.620;9.828;2023-03-24T01:18:41;3.65;;;3.00;;
54408;SDS011;40315;48.620;9.828;2023-03-24T01:21:09;4.22;;;3.00;;
54408;SDS011;40315;48.620;9.828;2023-03-24T01:23:37;4.15;;;3.10;;
54408;SDS011;40315;48.620;9.828;2023-03-24T01:26:07;4.25;;;2.83;;
54408;SDS011;40315;48.620;9.828;2023-03-24T01:28:39;4.28;;;3.10;;
54408;SDS011;40315;48.620;9.828;2023-03-24T01:31:08;3.50;;;3.05;;
54408;SDS011;40315;48.620;9.828;2023-03-24T01:33:39;4.07;;;3.05;;
54408;SDS011;40315;48.620;9.828;2023-03-24T01:36:06;4.75;;;3.10;;
54408;SDS011;40315;48.620;9.828;2023-03-24T01:38:34;3.75;;;2.85;;
54408;SDS011;40315;48.620;9.828;2023-03-24T01:41:04;5.47;;;3.10;;
54408;SDS011;40315;48.620;9.828;2023-03-24T01:43:33;3.10;;;2.80;;
54408;SDS011;40315;48.620;9.828;2023-03-24T01:49:32;3.75;;;3.17;;
54408;SDS011;40315;48.620;9.828;2023-03-24T01:52:03;5.75;;;3.20;;
54408;SDS011;40315;48.620;9.828;2023-03-24T01:54:35;3.65;;;2.70;;
54408;SDS011;40315;48.620;9.828;2023-03-24T01:57:09;5.55;;;3.10;;
54408;SDS011;40315;48.620;9.828;2023-03-24T01:59:43;3.97;;;3.13;;
54408;SDS011;40315;48.620;9.828;2023-03-24T02:02:33;4.13;;;2.95;;
54408;SDS011;40315;48.620;9.828;2023-03-24T02:05:05;4.53;;;3.30;;
54408;SDS011;40315;48.620;9.828;2023-03-24T02:07:40;6.43;;;2.90;;
54408;SDS011;40315;48.620;9.828;2023-03-24T02:10:14;5.28;;;3.10;;
54408;SDS011;40315;48.620;9.828;2023-03-24T02:12:43;4.75;;;2.92;;
54408;SDS011;40315;48.620;9.828;2023-03-24T02:15:13;3.00;;;2.70;;
54408;SDS011;40315;48.620;9.828;2023-03-24T02:17:46;3.25;;;2.95;;
54408;SDS011;40315;48.620;9.828;2023-03-24T02:20:48;3.25;;;2.80;;
54408;SDS011;40315;48.620;9.828;2023-03-24T02:26:47;2.70;;;2.50;;
54408;SDS011;40315;48.620;9.828;2023-03-24T02:36:04;3.53;;;2.90;;
54408;SDS011;40315;48.620;9.828;2023-03-24T02:42:08;4.53;;;2.63;;
54408;SDS011;40315;48.620;9.828;2023-03-24T02:44:47;4.30;;;2.70;;
54408;SDS011;40315;48.620;9.828;2023-03-24T02:47:22;2.88;;;2.50;;
54408;SDS011;40315;48.620;9.828;2023-03-24T02:50:00;3.88;;;3.00;;
54408;SDS011;40315;48.620;9.828;2023-03-24T02:52:34;4.50;;;2.60;;
54408;SDS011;40315;48.620;9.828;2023-03-24T02:55:14;2.85;;;2.55;;
54408;SDS011;40315;48.620;9.828;2023-03-24T02:57:44;4.07;;;2.45;;
54408;SDS011;40315;48.620;9.828;2023-03-24T03:00:43;3.08;;;2.60;;
54408;SDS011;40315;48.620;9.828;2023-03-24T03:03:44;4.22;;;2.88;;
54408;SDS011;40315;48.620;9.828;2023-03-24T03:06:16;4.25;;;2.40;;
54408;SDS011;40315;48.620;9.828;2023-03-24T03:08:47;3.00;;;2.25;;
54408;SDS011;40315;48.620;9.828;2023-03-24T03:11:18;2.67;;;2.47;;
54408;SDS011;40315;48.620;9.828;2023-03-24T03:13:47;3.55;;;2.60;;
54408;SDS011;40315;48.620;9.828;2023-03-24T03:16:19;4.05;;;2.22;;
54408;SDS011;40315;48.620;9.828;2023-03-24T03:18:53;2.30;;;2.10;;
54408;SDS011;40315;48.620;9.828;2023-03-24T03:21:25;4.13;;;2.45;;
54408;SDS011;40315;48.620;9.828;2023-03-24T03:23:57;3.63;;;2.42;;
54408;SDS011;40315;48.620;9.828;2023-03-24T03:26:32;2.70;;;2.10;;
54408;SDS011;40315;48.620;9.828;2023-03-24T03:29:04;2.53;;;2.25;;
54408;SDS011;40315;48.620;9.828;2023-03-24T03:31:38;3.17;;;2.08;;
54408;SDS011;40315;48.620;9.828;2023-03-24T03:34:13;2.72;;;2.10;;
54408;SDS011;40315;48.620;9.828;2023-03-24T03:36:45;2.67;;;2.20;;
54408;SDS011;40315;48.620;9.828;2023-03-24T03:39:15;4.10;;;2.10;;
54408;SDS011;40315;48.620;9.828;2023-03-24T03:41:50;3.55;;;2.08;;
54408;SDS011;40315;48.620;9.828;2023-03-24T03:44:20;2.53;;;2.30;;
54408;SDS011;40315;48.620;9.828;2023-03-24T03:46:47;3.85;;;2.63;;
54408;SDS011;40315;48.620;9.828;2023-03-24T03:49:25;3.00;;;2.58;;
54408;SDS011;40315;48.620;9.828;2023-03-24T03:51:54;2.95;;;2.45;;
54408;SDS011;40315;48.620;9.828;2023-03-24T03:54:21;3.28;;;2.20;;
54408;SDS011;40315;48.620;9.828;2023-03-24T03:56:56;3.92;;;2.55;;
54408;SDS011;40315;48.620;9.828;2023-03-24T03:59:29;3.42;;;2.47;;
54408;SDS011;40315;48.620;9.828;2023-03-24T04:02:00;2.30;;;2.10;;
54408;SDS011;40315;48.620;9.828;2023-03-24T04:07:58;3.08;;;2.78;;
54408;SDS011;40315;48.620;9.828;2023-03-24T04:10:59;3.10;;;2.58;;
54408;SDS011;40315;48.620;9.828;2023-03-24T04:14:23;2.58;;;2.22;;
54408;SDS011;40315;48.620;9.828;2023-03-24T04:17:45;4.40;;;2.65;;
54408;SDS011;40315;48.620;9.828;2023-03-24T04:20:45;3.20;;;2.40;;
54408;SDS011;40315;48.620;9.828;2023-03-24T04:23:23;3.08;;;2.10;;
54408;SDS011;40315;48.620;9.828;2023-03-24T04:26:00;3.65;;;2.40;;
54408;SDS011;40315;48.620;9.828;2023-03-24T04:28:37;4.78;;;2.58;;
54408;SDS011;40315;48.620;9.828;2023-03-24T04:31:13;4.25;;;2.35;;
54408;SDS011;40315;48.620;9.828;2023-03-24T04:33:48;3.38;;;2.00;;
54408;SDS011;40315;48.620;9.828;2023-03-24T04:36:19;4.30;;;2.28;;
54408;SDS011;40315;48.620;9.828;2023-03-24T04:39:30;3.22;;;2.00;;
54408;SDS011;40315;48.620;9.828;2023-03-24T04:42:07;4.15;;;1.98;;
54408;SDS011;40315;48.620;9.828;2023-03-24T04:44:40;2.95;;;1.80;;
54408;SDS011;40315;48.620;9.828;2023-03-24T04:47:19;2.00;;;1.77;;
54408;SDS011;40315;48.620;9.828;2023-03-24T04:50:10;2.67;;;2.17;;
54408;SDS011;40315;48.620;9.828;2023-03-24T04:52:39;1.98;;;1.73;;
54408;SDS011;40315;48.620;9.828;2023-03-24T04:55:24;2.00;;;1.70;;
54408;SDS011;40315;48.620;9.828;2023-03-24T04:58:05;2.28;;;1.80;;
54408;SDS011;40315;48.620;9.828;2023-03-24T05:00:32;1.88;;;1.67;;
54408;SDS011;40315;48.620;9.828;2023-03-24T05:03:02;2.30;;;1.95;;
54408;SDS011;40315;48.620;9.828;2023-03-24T05:05:30;1.70;;;1.55;;
54408;SDS011;40315;48.620;9.828;2023-03-24T05:07:57;3.45;;;1.70;;
54408;SDS011;40315;48.620;9.828;2023-03-24T05:10:24;2.95;;;1.95;;
54408;SDS011;40315;48.620;9.828;2023-03-24T05:12:54;1.77;;;1.65;;
54408;SDS011;40315;48.620;9.828;2023-03-24T05:15:24;4.10;;;2.10;;
54408;SDS011;40315;48.620;9.828;2023-03-24T05:17:57;3.72;;;2.00;;
54408;SDS011;40315;48.620;9.828;2023-03-24T05:20:28;2.00;;;1.60;;
54408;SDS011;40315;48.620;9.828;2023-03-24T05:23:07;3.08;;;1.75;;
54408;SDS011;40315;48.620;9.828;2023-03-24T05:25:38;2.50;;;1.80;;
54408;SDS011;40315;48.620;9.828;2023-03-24T05:28:05;3.45;;;1.65;;
54408;SDS011;40315;48.620;9.828;2023-03-24T05:30:33;3.22;;;1.83;;
54408;SDS011;40315;48.620;9.828;2023-03-24T05:33:10;2.78;;;2.00;;
54408;SDS011;40315;48.620;9.828;2023-03-24T05:35:38;2.78;;;1.95;;
54408;SDS011;40315;48.620;9.828;2023-03-24T05:38:06;2.22;;;1.67;;
54408;SDS011;40315;48.620;9.828;2023-03-24T05:40:35;2.03;;;1.83;;
54408;SDS011;40315;48.620;9.828;2023-03-24T05:43:13;3.83;;;1.90;;
54408;SDS011;40315;48.620;9.828;2023-03-24T05:45:47;2.83;;;1.92;;
54408;SDS011;40315;48.620;9.828;2023-03-24T05:48:24;2.47;;;1.90;;
54408;SDS011;40315;48.620;9.828;2023-03-24T05:51:19;2.45;;;1.92;;
54408;SDS011;40315;48.620;9.828;2023-03-24T05:53:56;1.63;;;1.42;;
54408;SDS011;40315;48.620;9.828;2023-03-24T05:56:29;2.58;;;1.83;;
54408;SDS011;40315;48.620;9.828;2023-03-24T05:59:15;2.28;;;1.58;;
54408;SDS011;40315;48.620;9.828;2023-03-24T06:02:05;2.15;;;1.98;;
54408;SDS011;40315;48.620;9.828;2023-03-24T06:04:50;6.57;;;5.93;;
54408;SDS011;40315;48.620;9.828;2023-03-24T06:07:22;2.72;;;2.05;;
54408;SDS011;40315;48.620;9.828;2023-03-24T06:09:51;2.58;;;1.65;;
54408;SDS011;40315;48.620;9.828;2023-03-24T06:12:22;2.83;;;1.60;;
54408;SDS011;40315;48.620;9.828;2023-03-24T06:14:59;2.13;;;1.42;;
54408;SDS011;40315;48.620;9.828;2023-03-24T06:17:28;1.35;;;1.23;;
54408;SDS011;40315;48.620;9.828;2023-03-24T06:20:04;2.10;;;1.58;;
54408;SDS011;40315;48.620;9.828;2023-03-24T06:23:09;2.40;;;1.52;;
54408;SDS011;40315;48.620;9.828;2023-03-24T06:25:50;2.03;;;1.67;;
54408;SDS011;40315;48.620;9.828;2023-03-24T06:28:22;3.13;;;1.77;;
54408;SDS011;40315;48.620;9.828;2023-03-24T06:30:51;3.05;;;1.60;;
54408;SDS011;40315;48.620;9.828;2023-03-24T06:33:28;1.77;;;1.67;;
54408;SDS011;40315;48.620;9.828;2023-03-24T06:35:58;2.78;;;1.60;;
54408;SDS011;40315;48.620;9.828;2023-03-24T06:38:28;2.38;;;1.90;;
54408;SDS011;40315;48.620;9.828;2023-03-24T06:40:58;2.83;;;1.67;;
54408;SDS011;40315;48.620;9.828;2023-03-24T06:43:26;1.60;;;1.50;;
54408;SDS011;40315;48.620;9.828;2023-03-24T06:45:54;2.42;;;1.75;;
54408;SDS011;40315;48.620;9.828;2023-03-24T06:48:24;2.70;;;2.20;;
54408;SDS011;40315;48.620;9.828;2023-03-24T06:50:58;2.90;;;2.17;;
54408;SDS011;40315;48.620;9.828;2023-03-24T06:53:25;4.07;;;2.03;;
54408;SDS011;40315;48.620;9.828;2023-03-24T06:55:54;2.45;;;1.75;;
54408;SDS011;40315;48.620;9.828;2023-03-24T06:58:24;2.38;;;1.95;;
54408;SDS011;40315;48.620;9.828;2023-03-24T07:01:15;3.95;;;3.45;;
54408;SDS011;40315;48.620;9.828;2023-03-24T07:03:55;2.50;;;2.17;;
54408;SDS011;40315;48.620;9.828;2023-03-24T07:06:52;2.55;;;2.20;;
54408;SDS011;40315;48.620;9.828;2023-03-24T07:09:20;2.28;;;2.05;;
54408;SDS011;40315;48.620;9.828;2023-03-24T07:11:50;2.80;;;2.25;;
54408;SDS011;40315;48.620;9.828;2023-03-24T07:14:19;2.80;;;2.10;;
54408;SDS011;40315;48.620;9.828;2023-03-24T07:16:50;2.85;;;2.25;;
54408;SDS011;40315;48.620;9.828;2023-03-24T07:19:40;2.33;;;2.13;;
54408;SDS011;40315;48.620;9.828;2023-03-24T07:22:28;3.70;;;2.28;;
54408;SDS011;40315;48.620;9.828;2023-03-24T07:25:29;2.35;;;2.05;;
54408;SDS011;40315;48.620;9.828;2023-03-24T07:28:06;2.72;;;2.25;;
54408;SDS011;40315;48.620;9.828;2023-03-24T07:30:38;3.50;;;2.38;;
54408;SDS011;40315;48.620;9.828;2023-03-24T07:33:05;2.80;;;2.03;;
54408;SDS011;40315;48.620;9.828;2023-03-24T07:35:34;4.45;;;2.00;;
54408;SDS011;40315;48.620;9.828;2023-03-24T07:38:05;2.38;;;1.98;;
54408;SDS011;40315;48.620;9.828;2023-03-24T07:40:34;2.53;;;2.00;;
54408;SDS011;40315;48.620;9.828;2023-03-24T07:43:05;2.08;;;1.77;;
54408;SDS011;40315;48.620;9.828;2023-03-24T07:45:54;2.58;;;1.85;;
54408;SDS011;40315;48.620;9.828;2023-03-24T07:48:21;2.90;;;1.83;;
54408;SDS011;40315;48.620;9.828;2023-03-24T07:50:51;3.80;;;2.20;;
54408;SDS011;40315;48.620;9.828;2023-03-24T07:53:43;2.25;;;1.95;;
54408;SDS011;40315;48.620;9.828;2023-03-24T07:56:22;4.78;;;2.70;;
54408;SDS011;40315;48.620;9.828;2023-03-24T07:58:56;3.33;;;1.80;;
54408;SDS011;40315;48.620;9.828;2023-03-24T08:01:38;3.38;;;1.90;;
54408;SDS011;40315;48.620;9.828;2023-03-24T08:04:08;4.03;;;2.05;;
54408;SDS011;40315;48.620;9.828;2023-03-24T08:07:00;6.00;;;4.70;;
54408;SDS011;40315;48.620;9.828;2023-03-24T08:09:28;7.40;;;4.95;;
54408;SDS011;40315;48.620;9.828;2023-03-24T08:11:55;5.90;;;4.00;;
54408;SDS011;40315;48.620;9.828;2023-03-24T08:14:26;6.00;;;3.40;;
54408;SDS011;40315;48.620;9.828;2023-03-24T08:16:55;4.80;;;3.20;;
54408;SDS011;40315;48.620;9.828;2023-03-24T08:19:26;5.65;;;4.60;;
54408;SDS011;40315;48.620;9.828;2023-03-24T08:21:57;6.05;;;4.20;;
54408;SDS011;40315;48.620;9.828;2023-03-24T08:24:27;4.88;;;4.10;;
54408;SDS011;40315;48.620;9.828;2023-03-24T08:26:54;4.53;;;3.50;;
54408;SDS011;40315;48.620;9.828;2023-03-24T08:29:23;3.50;;;3.20;;
54408;SDS011;40315;48.620;9.828;2023-03-24T08:31:54;5.00;;;3.67;;
54408;SDS011;40315;48.620;9.828;2023-03-24T08:34:21;2.90;;;2.03;;
54408;SDS011;40315;48.620;9.828;2023-03-24T08:36:51;3.78;;;2.00;;
54408;SDS011;40315;48.620;9.828;2023-03-24T08:39:18;2.28;;;2.08;;
54408;SDS011;40315;48.620;9.828;2023-03-24T08:41:46;3.50;;;2.10;;
54408;SDS011;40315;48.620;9.828;2023-03-24T08:44:14;2.03;;;1.80;;
54408;SDS011;40315;48.620;9.828;2023-03-24T08:46:42;3.17;;;2.25;;
54408;SDS011;40315;48.620;9.828;2023-03-24T08:49:10;3.75;;;2.03;;
54408;SDS011;40315;48.620;9.828;2023-03-24T08:51:37;2.65;;;1.98;;
54408;SDS011;40315;48.620;9.828;2023-03-24T08:54:08;7.07;;;5.05;;
54408;SDS011;40315;48.620;9.828;2023-03-24T08:56:36;3.92;;;3.40;;
54408;SDS011;40315;48.620;9.828;2023-03-24T08:59:06;3.97;;;3.67;;
54408;SDS011;40315;48.620;9.828;2023-03-24T09:01:33;3.88;;;2.97;;
54408;SDS011;40315;48.620;9.828;2023-03-24T09:04:00;3.92;;;2.83;;
54408;SDS011;40315;48.620;9.828;2023-03-24T09:06:31;2.80;;;2.60;;
54408;SDS011;40315;48.620;9.828;2023-03-24T09:09:00;3.78;;;3.15;;
54408;SDS011;40315;48.620;9.828;2023-03-24T09:11:28;5.10;;;2.72;;
54408;SDS011;40315;48.620;9.828;2023-03-24T09:13:58;4.68;;;2.80;;
54408;SDS011;40315;48.620;9.828;2023-03-24T09:16:25;4.88;;;2.92;;
54408;SDS011;40315;48.620;9.828;2023-03-24T09:18:52;3.38;;;1.90;;
54408;SDS011;40315;48.620;9.828;2023-03-24T09:21:22;2.05;;;1.77;;
54408;SDS011;40315;48.620;9.828;2023-03-24T09:23:51;2.13;;;1.90;;
54408;SDS011;40315;48.620;9.828;2023-03-24T09:26:18;2.30;;;1.60;;
54408;SDS011;40315;48.620;9.828;2023-03-24T09:28:47;2.00;;;1.80;;
54408;SDS011;40315;48.620;9.828;2023-03-24T09:31:17;1.90;;;1.60;;
54408;SDS011;40315;48.620;9.828;2023-03-24T09:33:44;3.80;;;2.28;;
54408;SDS011;40315;48.620;9.828;2023-03-24T09:36:13;3.55;;;2.00;;
54408;SDS011;40315;48.620;9.828;2023-03-24T09:38:42;2.15;;;1.90;;
54408;SDS011;40315;48.620;9.828;2023-03-24T09:41:15;4.47;;;2.72;;
54408;SDS011;40315;48.620;9.828;2023-03-24T09:43:45;3.50;;;2.55;;
54408;SDS011;40315;48.620;9.828;2023-03-24T09:46:18;2.63;;;1.90;;
54408;SDS011;40315;48.620;9.828;2023-03-24T09:48:52;2.20;;;1.80;;
54408;SDS011;40315;48.620;9.828;2023-03-24T09:51:21;4.35;;;2.10;;
54408;SDS011;40315;48.620;9.828;2023-03-24T09:53:54;4.10;;;2.33;;
54408;SDS011;40315;48.620;9.828;2023-03-24T09:56:26;3.95;;;2.55;;
54408;SDS011;40315;48.620;9.828;2023-03-24T09:59:00;4.20;;;3.00;;
54408;SDS011;40315;48.620;9.828;2023-03-24T10:01:30;2.00;;;1.90;;
54408;SDS011;40315;48.620;9.828;2023-03-24T10:04:00;3.20;;;2.53;;
54408;SDS011;40315;48.620;9.828;2023-03-24T10:06:29;2.90;;;2.03;;
54408;SDS011;40315;48.620;9.828;2023-03-24T10:09:14;2.30;;;2.10;;
54408;SDS011;40315;48.620;9.828;2023-03-24T10:11:51;2.30;;;1.88;;
54408;SDS011;40315;48.620;9.828;2023-03-24T10:14:30;3.92;;;2.40;;
54408;SDS011;40315;48.620;9.828;2023-03-24T10:17:08;3.58;;;2.03;;
54408;SDS011;40315;48.620;9.828;2023-03-24T10:19:51;1.65;;;1.55;;
54408;SDS011;40315;48.620;9.828;2023-03-24T10:22:24;1.10;;;1.00;;
54408;SDS011;40315;48.620;9.828;2023-03-24T10:25:01;1.40;;;1.05;;
54408;SDS011;40315;48.620;9.828;2023-03-24T10:27:50;1.17;;;0.90;;
54408;SDS011;40315;48.620;9.828;2023-03-24T10:30:24;0.80;;;0.80;;
54408;SDS011;40315;48.620;9.828;2023-03-24T10:32:55;1.30;;;0.90;;
54408;SDS011;40315;48.620;9.828;2023-03-24T10:35:29;1.17;;;0.85;;
54408;SDS011;40315;48.620;9.828;2023-03-24T10:38:03;1.30;;;1.20;;
54408;SDS011;40315;48.620;9.828;2023-03-24T10:40:44;1.25;;;0.85;;
54408;SDS011;40315;48.620;9.828;2023-03-24T10:43:14;1.05;;;0.80;;
54408;SDS011;40315;48.620;9.828;2023-03-24T10:45:43;1.55;;;1.08;;
54408;SDS011;40315;48.620;9.828;2023-03-24T10:51:15;0.80;;;0.73;;
54408;SDS011;40315;48.620;9.828;2023-03-24T10:53:46;1.58;;;1.20;;
54408;SDS011;40315;48.620;9.828;2023-03-24T10:56:17;0.73;;;0.73;;
54408;SDS011;40315;48.620;9.828;2023-03-24T10:59:13;1.40;;;1.13;;
54408;SDS011;40315;48.620;9.828;2023-03-24T11:01:56;1.55;;;1.45;;
54408;SDS011;40315;48.620;9.828;2023-03-24T11:04:28;2.35;;;1.65;;
54408;SDS011;40315;48.620;9.828;2023-03-24T11:06:59;1.85;;;1.30;;
54408;SDS011;40315;48.620;9.828;2023-03-24T11:09:39;1.88;;;1.13;;
54408;SDS011;40315;48.620;9.828;2023-03-24T11:12:19;1.73;;;1.40;;
54408;SDS011;40315;48.620;9.828;2023-03-24T11:14:49;1.20;;;0.90;;
54408;SDS011;40315;48.620;9.828;2023-03-24T11:17:24;0.98;;;0.85;;
54408;SDS011;40315;48.620;9.828;2023-03-24T11:19:55;1.20;;;1.10;;
54408;SDS011;40315;48.620;9.828;2023-03-24T11:22:24;1.63;;;1.38;;
54408;SDS011;40315;48.620;9.828;2023-03-24T11:24:54;3.88;;;3.03;;
54408;SDS011;40315;48.620;9.828;2023-03-24T11:27:22;4.43;;;3.30;;
54408;SDS011;40315;48.620;9.828;2023-03-24T11:29:53;1.70;;;1.13;;
54408;SDS011;40315;48.620;9.828;2023-03-24T11:32:22;1.60;;;1.50;;
54408;SDS011;40315;48.620;9.828;2023-03-24T11:34:57;0.90;;;0.80;;
54408;SDS011;40315;48.620;9.828;2023-03-24T11:37:32;0.70;;;0.70;;
54408;SDS011;40315;48.620;9.828;2023-03-24T11:40:14;3.22;;;2.40;;
54408;SDS011;40315;48.620;9.828;2023-03-24T11:42:48;1.20;;;1.10;;
54408;SDS011;40315;48.620;9.828;2023-03-24T11:45:22;1.10;;;1.00;;
54408;SDS011;40315;48.620;9.828;2023-03-24T11:47:58;1.02;;;0.80;;
54408;SDS011;40315;48.620;9.828;2023-03-24T11:50:27;1.10;;;1.00;;
54408;SDS011;40315;48.620;9.828;2023-03-24T11:52:59;0.80;;;0.73;;
54408;SDS011;40315;48.620;9.828;2023-03-24T11:55:33;0.85;;;0.70;;
54408;SDS011;40315;48.620;9.828;2023-03-24T11:58:05;0.77;;;0.60;;
54408;SDS011;40315;48.620;9.828;2023-03-24T12:00:46;0.90;;;0.70;;
54408;SDS011;40315;48.620;9.828;2023-03-24T12:03:26;1.17;;;0.50;;
54408;SDS011;40315;48.620;9.828;2023-03-24T12:06:11;0.60;;;0.60;;
54408;SDS011;40315;48.620;9.828;2023-03-24T12:08:51;0.95;;;0.68;;
54408;SDS011;40315;48.620;9.828;2023-03-24T12:11:30;1.00;;;0.60;;
54408;SDS011;40315;48.620;9.828;2023-03-24T12:14:05;0.80;;;0.70;;
54408;SDS011;40315;48.620;9.828;2023-03-24T12:16:42;1.00;;;0.60;;
54408;SDS011;40315;48.620;9.828;2023-03-24T12:19:28;0.95;;;0.70;;
54408;SDS011;40315;48.620;9.828;2023-03-24T12:22:20;0.65;;;0.47;;
54408;SDS011;40315;48.620;9.828;2023-03-24T12:27:56;0.88;;;0.40;;
54408;SDS011;40315;48.620;9.828;2023-03-24T12:30:40;0.50;;;0.40;;
54408;SDS011;40315;48.620;9.828;2023-03-24T12:33:23;0.50;;;0.47;;
54408;SDS011;40315;48.620;9.828;2023-03-24T12:36:11;0.60;;;0.50;;
54408;SDS011;40315;48.620;9.828;2023-03-24T12:38:49;0.50;;;0.50;;
54408;SDS011;40315;48.620;9.828;2023-03-24T12:41:30;0.52;;;0.52;;
54408;SDS011;40315;48.620;9.828;2023-03-24T12:44:27;0.50;;;0.45;;
54408;SDS011;40315;48.620;9.828;2023-03-24T12:47:20;0.57;;;0.57;;
54408;SDS011;40315;48.620;9.828;2023-03-24T12:50:02;0.60;;;0.60;;
54408;SDS011;40315;48.620;9.828;2023-03-24T12:52:59;1.15;;;0.70;;
54408;SDS011;40315;48.620;9.828;2023-03-24T12:55:36;0.52;;;0.52;;
54408;SDS011;40315;48.620;9.828;2023-03-24T12:58:10;1.42;;;0.50;;
54408;SDS011;40315;48.620;9.828;2023-03-24T13:00:41;1.40;;;0.68;;
54408;SDS011;40315;48.620;9.828;2023-03-24T13:03:20;0.40;;;0.40;;
54408;SDS011;40315;48.620;9.828;2023-03-24T13:05:58;0.85;;;0.50;;
54408;SDS011;40315;48.620;9.828;2023-03-24T13:08:39;0.77;;;0.50;;
54408;SDS011;40315;48.620;9.828;2023-03-24T13:11:11;1.50;;;0.30;;
54408;SDS011;40315;48.620;9.828;2023-03-24T13:13:43;1.70;;;1.60;;
54408;SDS011;40315;48.620;9.828;2023-03-24T13:16:14;0.70;;;0.68;;
54408;SDS011;40315;48.620;9.828;2023-03-24T13:18:46;0.40;;;0.40;;
54408;SDS011;40315;48.620;9.828;2023-03-24T13:21:19;0.55;;;0.55;;
54408;SDS011;40315;48.620;9.828;2023-03-24T13:23:50;0.70;;;0.70;;
54408;SDS011;40315;48.620;9.828;2023-03-24T13:26:23;0.70;;;0.55;;
54408;SDS011;40315;48.620;9.828;2023-03-24T13:29:03;1.48;;;0.57;;
54408;SDS011;40315;48.620;9.828;2023-03-24T13:31:42;0.47;;;0.47;;
54408;SDS011;40315;48.620;9.828;2023-03-24T13:34:19;3.17;;;2.50;;
54408;SDS011;40315;48.620;9.828;2023-03-24T13:36:53;0.73;;;0.50;;
54408;SDS011;40315;48.620;9.828;2023-03-24T13:39:24;1.48;;;0.80;;
54408;SDS011;40315;48.620;9.828;2023-03-24T13:41:53;0.40;;;0.40;;
54408;SDS011;40315;48.620;9.828;2023-03-24T13:44:23;0.60;;;0.40;;
54408;SDS011;40315;48.620;9.828;2023-03-24T13:46:59;2.35;;;1.30;;
54408;SDS011;40315;48.620;9.828;2023-03-24T13:49:33;1.60;;;1.00;;
54408;SDS011;40315;48.620;9.828;2023-03-24T13:52:04;0.60;;;0.60;;
54408;SDS011;40315;48.620;9.828;2023-03-24T13:54:39;2.20;;;2.00;;
54408;SDS011;40315;48.620;9.828;2023-03-24T13:57:07;1.85;;;0.40;;
54408;SDS011;40315;48.620;9.828;2023-03-24T13:59:56;1.20;;;0.40;;
54408;SDS011;40315;48.620;9.828;2023-03-24T14:02:43;1.02;;;1.00;;
54408;SDS011;40315;48.620;9.828;2023-03-24T14:05:32;1.20;;;1.10;;
54408;SDS011;40315;48.620;9.828;2023-03-24T14:08:32;0.80;;;0.80;;
54408;SDS011;40315;48.620;9.828;2023-03-24T14:11:09;0.90;;;0.70;;
54408;SDS011;40315;48.620;9.828;2023-03-24T14:14:15;0.60;;;0.50;;
54408;SDS011;40315;48.620;9.828;2023-03-24T14:16:50;0.50;;;0.30;;
54408;SDS011;40315;48.620;9.828;2023-03-24T14:19:39;0.43;;;0.43;;
54408;SDS011;40315;48.620;9.828;2023-03-24T14:22:08;0.93;;;0.50;;
54408;SDS011;40315;48.620;9.828;2023-03-24T14:24:43;0.55;;;0.40;;
54408;SDS011;40315;48.620;9.828;2023-03-24T14:27:31;0.40;;;0.30;;
54408;SDS011;40315;48.620;9.828;2023-03-24T14:30:02;0.57;;;0.45;;
54408;SDS011;40315;48.620;9.828;2023-03-24T14:32:42;1.38;;;0.90;;
54408;SDS011;40315;48.620;9.828;2023-03-24T14:35:21;0.65;;;0.65;;
54408;SDS011;40315;48.620;9.828;2023-03-24T14:37:56;0.35;;;0.35;;
54408;SDS011;40315;48.620;9.828;2023-03-24T14:40:28;0.50;;;0.40;;
54408;SDS011;40315;48.620;9.828;2023-03-24T14:43:15;1.00;;;0.77;;
54408;SDS011;40315;48.620;9.828;2023-03-24T14:45:53;3.42;;;2.03;;
54408;SDS011;40315;48.620;9.828;2023-03-24T14:48:33;1.75;;;1.30;;
54408;SDS011;40315;48.620;9.828;2023-03-24T14:51:11;4.25;;;3.17;;
54408;SDS011;40315;48.620;9.828;2023-03-24T14:54:00;0.80;;;0.80;;
54408;SDS011;40315;48.620;9.828;2023-03-24T14:56:35;0.65;;;0.65;;
54408;SDS011;40315;48.620;9.828;2023-03-24T14:59:07;1.45;;;0.63;;
54408;SDS011;40315;48.620;9.828;2023-03-24T15:01:42;1.10;;;1.00;;
54408;SDS011;40315;48.620;9.828;2023-03-24T15:04:13;1.13;;;0.70;;
54408;SDS011;40315;48.620;9.828;2023-03-24T15:06:43;0.60;;;0.60;;
54408;SDS011;40315;48.620;9.828;2023-03-24T15:09:14;1.60;;;1.50;;
54408;SDS011;40315;48.620;9.828;2023-03-24T15:11:44;1.17;;;1.08;;
54408;SDS011;40315;48.620;9.828;2023-03-24T15:14:20;0.70;;;0.60;;
54408;SDS011;40315;48.620;9.828;2023-03-24T15:16:50;1.67;;;1.30;;
54408;SDS011;40315;48.620;9.828;2023-03-24T15:19:20;1.40;;;1.30;;
54408;SDS011;40315;48.620;9.828;2023-03-24T15:21:51;1.67;;;1.58;;
54408;SDS011;40315;48.620;9.828;2023-03-24T15:24:25;5.75;;;3.97;;
54408;SDS011;40315;48.620;9.828;2023-03-24T15:27:12;3.03;;;2.50;;
54408;SDS011;40315;48.620;9.828;2023-03-24T15:29:45;1.17;;;0.90;;
54408;SDS011;40315;48.620;9.828;2023-03-24T15:32:18;2.15;;;1.80;;
54408;SDS011;40315;48.620;9.828;2023-03-24T15:34:50;1.45;;;1.35;;
54408;SDS011;40315;48.620;9.828;2023-03-24T15:37:21;0.80;;;0.68;;
54408;SDS011;40315;48.620;9.828;2023-03-24T15:39:50;1.25;;;1.02;;
54408;SDS011;40315;48.620;9.828;2023-03-24T15:42:22;1.63;;;1.27;;
54408;SDS011;40315;48.620;9.828;2023-03-24T15:44:51;2.72;;;2.38;;
54408;SDS011;40315;48.620;9.828;2023-03-24T15:47:21;0.77;;;0.60;;
54408;SDS011;40315;48.620;9.828;2023-03-24T15:49:57;0.98;;;0.50;;
54408;SDS011;40315;48.620;9.828;2023-03-24T15:55:26;1.20;;;1.10;;
54408;SDS011;40315;48.620;9.828;2023-03-24T15:57:58;1.08;;;0.68;;
54408;SDS011;40315;48.620;9.828;2023-03-24T16:00:27;1.27;;;0.70;;
54408;SDS011;40315;48.620;9.828;2023-03-24T16:02:59;1.30;;;0.50;;
54408;SDS011;40315;48.620;9.828;2023-03-24T16:05:33;1.77;;;0.57;;